M I D A S
Marine Information and Data Acquisition System
Tripno 1496 of the Zeeleeuw from 2008-05-30 07:44:21 to 2008-05-30 14:10:02
Back to CruiseResearch ActivitiesStationsMapUnderway DataData graphs

EquipmentUnitsComment
TimeDGPSUTC
LatitudeDGPSDM.mWGS84
LongitudeDGPSDM.mWGS84
HeadingGyrodeg 
SOGDGPSknotsSpeed over ground
COGDGPSdegCourse over ground
DepthEcho soundermeters200 kHz
Missing or incorrect values are displayed as -999
Navigation data collected by the RV Zeeleeuw from 2008-05-30 07:44:13 to 2008-05-30 14:15:19
                                                                                    Next 1000 lines
Time Latitude Longitude Heading SOG COG Depth
2008-05-30 07:44:23 51°13.623 2°56.049 117.1 0.1 190 9.3
2008-05-30 07:44:28 51°13.623 2°56.049 115.7 0.1 191 9.3
2008-05-30 07:44:33 51°13.623 2°56.049 114.1 0.1 214 9.4
2008-05-30 07:44:38 51°13.623 2°56.049 112.6 0.1 219 9.4
2008-05-30 07:44:43 51°13.623 2°56.048 111.6 0.1 290 9.4
2008-05-30 07:44:48 51°13.623 2°56.047 110.9 0.4 289 9.4
2008-05-30 07:44:53 51°13.624 2°56.046 110.2 0.7 292 9.4
2008-05-30 07:44:58 51°13.624 2°56.044 109.8 0.9 292 9.4
2008-05-30 07:45:03 51°13.625 2°56.041 109.4 1.4 292 9.6
2008-05-30 07:45:08 51°13.626 2°56.037 109 1.8 292 9.6
2008-05-30 07:45:13 51°13.627 2°56.033 109 2.2 293 9.7
2008-05-30 07:45:18 51°13.628 2°56.027 109.4 2.6 292 4.8
2008-05-30 07:45:24 51°13.63 2°56.02 110.2 2.9 294 -999
2008-05-30 07:45:29 51°13.632 2°56.013 110.7 3.2 294 -999
2008-05-30 07:45:33 51°13.634 2°56.008 110.9 3.6 294 -999
2008-05-30 07:45:38 51°13.636 2°56 110.9 3.8 293 -999
2008-05-30 07:45:43 51°13.638 2°55.991 110.9 4.1 292 -999
2008-05-30 07:45:49 51°13.641 2°55.981 110.9 4.2 292 -999
2008-05-30 07:45:53 51°13.642 2°55.974 111 4.4 291 -999
2008-05-30 07:45:58 51°13.644 2°55.964 111.1 4.5 291 -999
2008-05-30 07:46:03 51°13.647 2°55.954 111.6 4.7 291 -999
2008-05-30 07:46:09 51°13.65 2°55.942 112.3 4.8 291 -999
2008-05-30 07:46:13 51°13.652 2°55.934 113.6 4.9 292 -999
2008-05-30 07:46:18 51°13.655 2°55.925 115 4.9 294 -999
2008-05-30 07:46:23 51°13.658 2°55.915 116.5 4.9 295 -999
2008-05-30 07:46:28 51°13.661 2°55.905 117.8 4.8 296 -999
2008-05-30 07:46:34 51°13.664 2°55.894 119.1 4.8 298 -999
2008-05-30 07:46:39 51°13.667 2°55.885 119.9 4.7 298 -999
2008-05-30 07:46:43 51°13.67 2°55.878 120.7 4.7 299 -999
2008-05-30 07:46:48 51°13.673 2°55.869 121.2 4.8 300 -999
2008-05-30 07:46:53 51°13.677 2°55.859 121.7 4.8 301 -999
2008-05-30 07:46:59 51°13.681 2°55.848 122.5 4.9 301 -999
2008-05-30 07:47:04 51°13.685 2°55.839 123.7 5 302 -999
2008-05-30 07:47:08 51°13.688 2°55.831 125.5 5.1 303 -999
2008-05-30 07:47:13 51°13.692 2°55.822 126.8 5.1 304 -999
2008-05-30 07:47:19 51°13.697 2°55.811 127.6 5.2 305 -999
2008-05-30 07:47:24 51°13.701 2°55.802 129.1 5.2 307 -999
2008-05-30 07:47:29 51°13.706 2°55.792 130.9 5.3 307 -999
2008-05-30 07:47:33 51°13.709 2°55.785 132.8 5.4 308 -999
2008-05-30 07:47:39 51°13.715 2°55.774 134.4 5.4 310 -999
2008-05-30 07:47:44 51°13.72 2°55.765 135.6 5.4 311 -999
2008-05-30 07:47:49 51°13.725 2°55.756 137 5.4 312 -999
2008-05-30 07:47:53 51°13.729 2°55.749 138.3 5.5 313 -999
2008-05-30 07:47:59 51°13.736 2°55.738 139.8 5.4 315 -999
2008-05-30 07:48:03 51°13.74 2°55.732 141.3 5.4 316 -999
2008-05-30 07:48:08 51°13.746 2°55.724 143.6 5.4 318 -999
2008-05-30 07:48:14 51°13.752 2°55.715 145.3 5.3 320 -999
2008-05-30 07:48:19 51°13.758 2°55.708 147.4 5.3 323 -999
2008-05-30 07:48:24 51°13.764 2°55.701 149.4 5.3 325 -999
2008-05-30 07:48:28 51°13.77 2°55.696 150.7 5.4 327 -999
2008-05-30 07:48:33 51°13.776 2°55.69 151.7 5.5 330 -999
2008-05-30 07:48:39 51°13.784 2°55.682 152.5 5.5 330 -999
2008-05-30 07:48:44 51°13.791 2°55.677 152.9 5.5 332 -999
2008-05-30 07:48:48 51°13.796 2°55.672 153.5 5.5 333 -999
2008-05-30 07:48:53 51°13.803 2°55.667 154.2 5.5 333 -999
2008-05-30 07:48:59 51°13.812 2°55.66 154.9 5.5 334 -999
2008-05-30 07:49:04 51°13.818 2°55.655 156.3 5.5 335 -999
2008-05-30 07:49:08 51°13.824 2°55.651 157.8 5.4 336 -999
2008-05-30 07:49:13 51°13.831 2°55.647 159.2 5.3 338 -999
2008-05-30 07:49:18 51°13.838 2°55.642 160.8 5.3 339 -999
2008-05-30 07:49:24 51°13.846 2°55.638 162.8 5.2 341 -999
2008-05-30 07:49:29 51°13.853 2°55.634 164.8 5.2 342 -999
2008-05-30 07:49:33 51°13.858 2°55.632 167.2 5.2 345 -999
2008-05-30 07:49:38 51°13.865 2°55.63 169.8 5.2 347 -999
2008-05-30 07:49:43 51°13.872 2°55.628 173.4 5.2 351 -999
2008-05-30 07:49:49 51°13.881 2°55.627 177.2 5.2 355 -999
2008-05-30 07:49:54 51°13.888 2°55.627 181 5.1 359 -999
2008-05-30 07:49:59 51°13.895 2°55.627 185 5 3 -999
2008-05-30 07:50:03 51°13.9 2°55.628 188.8 5 7 -999
2008-05-30 07:50:09 51°13.908 2°55.631 192.5 4.8 10 -999
2008-05-30 07:50:14 51°13.914 2°55.633 195.8 4.6 13 -999
2008-05-30 07:50:19 51°13.92 2°55.635 198.8 4.4 15 -999
2008-05-30 07:50:23 51°13.924 2°55.638 201.7 4.1 18 -999
2008-05-30 07:50:28 51°13.929 2°55.641 204.7 4 21 -999
2008-05-30 07:50:34 51°13.935 2°55.645 207.6 3.8 23 -999
2008-05-30 07:50:39 51°13.939 2°55.648 210.2 3.5 25 -999
2008-05-30 07:50:43 51°13.942 2°55.651 212.3 3.3 27 -999
2008-05-30 07:50:48 51°13.946 2°55.654 214.7 3 29 -999
2008-05-30 07:50:53 51°13.949 2°55.657 216.9 2.5 32 -999
2008-05-30 07:50:59 51°13.952 2°55.66 219.4 2.1 31 -999
2008-05-30 07:51:03 51°13.953 2°55.661 222.1 1.5 32 12.5
2008-05-30 07:51:09 51°13.954 2°55.662 224 0.8 22 12.6
2008-05-30 07:51:13 51°13.954 2°55.662 227.1 0.4 341 12.6
2008-05-30 07:51:18 51°13.955 2°55.661 231.7 0.7 277 12.6
2008-05-30 07:51:24 51°13.954 2°55.657 239 1.3 261 12.7
2008-05-30 07:51:28 51°13.954 2°55.653 244.4 1.9 264 12.6
2008-05-30 07:51:33 51°13.954 2°55.648 254.3 2.5 269 12.6
2008-05-30 07:51:38 51°13.954 2°55.641 261.2 3 277 12.6
2008-05-30 07:51:44 51°13.956 2°55.632 270.1 3.6 283 12.6
2008-05-30 07:51:49 51°13.958 2°55.623 278.3 4.1 289 12.6
2008-05-30 07:51:53 51°13.96 2°55.616 285.4 4.5 294 12.9
2008-05-30 07:51:58 51°13.963 2°55.606 291 4.6 297 12.8
2008-05-30 07:52:03 51°13.966 2°55.598 295.1 4.7 302 12.6
2008-05-30 07:52:09 51°13.971 2°55.587 298.9 4.7 305 12.8
2008-05-30 07:52:13 51°13.974 2°55.581 302.9 4.7 310 12.8
2008-05-30 07:52:18 51°13.979 2°55.574 308.1 4.8 314 12.6
2008-05-30 07:52:23 51°13.984 2°55.566 312.7 4.8 317 12.6
2008-05-30 07:52:29 51°13.99 2°55.558 316.4 4.9 319 12.8
2008-05-30 07:52:33 51°13.994 2°55.552 318.2 4.9 321 12.7
2008-05-30 07:52:38 51°14 2°55.546 320.4 5 324 12.7
2008-05-30 07:52:43 51°14.005 2°55.539 322.9 5 325 12.7
2008-05-30 07:52:48 51°14.011 2°55.533 325.8 5 328 12.7
2008-05-30 07:52:53 51°14.018 2°55.528 328 5.1 328 12.7
2008-05-30 07:52:58 51°14.025 2°55.524 329 5.1 330 12.8
2008-05-30 07:53:03 51°14.031 2°55.517 330.1 5.2 330 12.7
2008-05-30 07:53:08 51°14.037 2°55.511 331 5.3 332 12.8
2008-05-30 07:53:13 51°14.043 2°55.506 332.7 5.3 334 12.8
2008-05-30 07:53:18 51°14.05 2°55.5 334.6 5.4 335 12.8
2008-05-30 07:53:23 51°14.057 2°55.495 335.6 5.5 334 12.7
2008-05-30 07:53:29 51°14.065 2°55.489 335.1 5.5 334 12.8
2008-05-30 07:53:33 51°14.071 2°55.485 334.2 5.6 334 12.8
2008-05-30 07:53:38 51°14.078 2°55.479 334 5.7 334 12.7
2008-05-30 07:53:44 51°14.087 2°55.473 333.8 5.7 334 12.8
2008-05-30 07:53:49 51°14.094 2°55.467 334 5.7 335 -999
2008-05-30 07:53:53 51°14.099 2°55.462 334.5 5.8 335 5.2
2008-05-30 07:53:58 51°14.106 2°55.457 335.1 5.7 336 12.9
2008-05-30 07:54:03 51°14.114 2°55.452 335.4 5.6 335 12.8
2008-05-30 07:54:09 51°14.122 2°55.446 335.6 5.5 336 -999
2008-05-30 07:54:13 51°14.127 2°55.442 335.6 5.5 336 -999
2008-05-30 07:54:18 51°14.134 2°55.437 335.2 5.4 335 -999
2008-05-30 07:54:23 51°14.141 2°55.432 334.8 5.4 334 13.4
2008-05-30 07:54:29 51°14.149 2°55.425 334.1 5.4 333 -999
2008-05-30 07:54:33 51°14.154 2°55.421 333.2 5.4 332 13.4
2008-05-30 07:54:38 51°14.161 2°55.416 332.5 5.5 332 12.9
2008-05-30 07:54:43 51°14.168 2°55.41 331.9 5.4 331 12.9
2008-05-30 07:54:48 51°14.175 2°55.404 331.5 5.5 330 -999
2008-05-30 07:54:53 51°14.181 2°55.398 331.1 5.5 330 13.8
2008-05-30 07:54:58 51°14.188 2°55.392 330.8 5.6 330 -999
2008-05-30 07:55:03 51°14.194 2°55.385 330.4 5.6 329 13
2008-05-30 07:55:08 51°14.201 2°55.378 329.7 5.6 327 12.6
2008-05-30 07:55:13 51°14.208 2°55.371 328.6 5.7 326 12.6
2008-05-30 07:55:18 51°14.214 2°55.364 327.1 5.7 324 12.5
2008-05-30 07:55:23 51°14.22 2°55.356 324.7 5.7 321 12.6
2008-05-30 07:55:28 51°14.226 2°55.348 322.2 5.7 319 12.3
2008-05-30 07:55:33 51°14.232 2°55.339 319.3 5.8 316 12.2
2008-05-30 07:55:38 51°14.238 2°55.33 316.4 5.8 315 12.3
2008-05-30 07:55:43 51°14.243 2°55.321 314.2 5.8 314 12.7
2008-05-30 07:55:48 51°14.249 2°55.311 312.7 5.8 313 13.3
2008-05-30 07:55:53 51°14.254 2°55.302 312 5.9 313 13.4
2008-05-30 07:55:58 51°14.259 2°55.292 311.7 5.8 312 13.3
2008-05-30 07:56:04 51°14.265 2°55.28 311.3 5.8 311 12.7
2008-05-30 07:56:09 51°14.27 2°55.27 311.1 5.8 309 12.8
2008-05-30 07:56:13 51°14.274 2°55.262 310.4 5.9 310 12.9
2008-05-30 07:56:18 51°14.28 2°55.251 310.2 6.1 309 12.9
2008-05-30 07:56:23 51°14.286 2°55.241 309.8 6.4 310 13.6
2008-05-30 07:56:28 51°14.292 2°55.229 310 6.8 310 13.7
2008-05-30 07:56:33 51°14.298 2°55.217 310.2 7.2 311 13.7
2008-05-30 07:56:38 51°14.305 2°55.204 310.7 7.5 311 -999
2008-05-30 07:56:43 51°14.313 2°55.191 310.8 7.9 310 12.8
2008-05-30 07:56:48 51°14.32 2°55.177 310.5 8.3 309 12.8
2008-05-30 07:56:53 51°14.328 2°55.162 310.2 8.8 308 13.1
2008-05-30 07:56:58 51°14.336 2°55.146 309.3 9.2 309 13.6
2008-05-30 07:57:03 51°14.344 2°55.129 308.3 9.7 308 -999
2008-05-30 07:57:08 51°14.352 2°55.111 307.7 10.1 308 13.1
2008-05-30 07:57:13 51°14.362 2°55.094 308 10.4 309 12.8
2008-05-30 07:57:18 51°14.372 2°55.076 309.2 10.7 311 12.5
2008-05-30 07:57:23 51°14.382 2°55.058 310.6 11 313 13.2
2008-05-30 07:57:28 51°14.393 2°55.041 312.7 11.2 317 12.6
2008-05-30 07:57:33 51°14.406 2°55.025 314.7 11.4 320 12.9
2008-05-30 07:57:38 51°14.418 2°55.008 316 11.6 321 12.6
2008-05-30 07:57:43 51°14.431 2°54.993 317 11.8 322 12.6
2008-05-30 07:57:48 51°14.445 2°54.977 317.4 12 324 12.5
2008-05-30 07:57:53 51°14.459 2°54.963 318.1 12.1 327 12.8
2008-05-30 07:57:58 51°14.473 2°54.949 320.6 12.2 328 12.8
2008-05-30 07:58:03 51°14.487 2°54.935 321.4 12.1 328 12.6
2008-05-30 07:58:08 51°14.502 2°54.921 322.1 12.3 331 12.6
2008-05-30 07:58:13 51°14.517 2°54.909 323.7 12.3 332 12.4
2008-05-30 07:58:18 51°14.532 2°54.897 325.8 12.3 334 12.5
2008-05-30 07:58:23 51°14.548 2°54.885 327.6 12.3 333 12.1
2008-05-30 07:58:28 51°14.563 2°54.872 327.7 12.3 334 12.3
2008-05-30 07:58:33 51°14.578 2°54.86 327.1 12.3 333 12.3
2008-05-30 07:58:38 51°14.594 2°54.849 327.2 12.4 337 12.2
2008-05-30 07:58:43 51°14.61 2°54.839 330.1 12.4 338 12.2
2008-05-30 07:58:48 51°14.626 2°54.829 332 12.4 338 12.1
2008-05-30 07:58:53 51°14.642 2°54.819 332.5 12.5 339 12.2
2008-05-30 07:58:58 51°14.658 2°54.809 333.3 12.4 339 12
2008-05-30 07:59:03 51°14.675 2°54.799 333.4 12.5 340 12.1
2008-05-30 07:59:08 51°14.691 2°54.789 333.6 12.5 339 11.9
2008-05-30 07:59:13 51°14.707 2°54.78 333.8 12.5 340 12
2008-05-30 07:59:18 51°14.723 2°54.77 334 12.5 339 12
2008-05-30 07:59:23 51°14.739 2°54.76 333.7 12.6 339 11.9
2008-05-30 07:59:28 51°14.756 2°54.75 333.7 12.5 340 11.9
2008-05-30 07:59:33 51°14.772 2°54.74 333.6 12.4 338 12
2008-05-30 07:59:38 51°14.788 2°54.73 332.7 12.4 338 12
2008-05-30 07:59:43 51°14.804 2°54.719 332.2 12.4 337 12
2008-05-30 07:59:48 51°14.819 2°54.708 331.5 12.3 337 11.9
2008-05-30 07:59:53 51°14.835 2°54.697 330.9 12.4 336 12
2008-05-30 07:59:58 51°14.851 2°54.686 330.4 12.4 336 11.8
2008-05-30 08:00:03 51°14.866 2°54.675 329.7 12.4 336 11.7
2008-05-30 08:00:08 51°14.882 2°54.664 329.4 12.4 336 11.9
2008-05-30 08:00:13 51°14.898 2°54.653 329.4 12.5 336 11.8
2008-05-30 08:00:18 51°14.914 2°54.642 329.5 12.4 336 11.6
2008-05-30 08:00:23 51°14.93 2°54.63 329.4 12.4 336 11.7
2008-05-30 08:00:28 51°14.946 2°54.619 329.4 12.5 336 11.6
2008-05-30 08:00:33 51°14.961 2°54.608 329.2 12.5 336 11.5
2008-05-30 08:00:38 51°14.977 2°54.597 329.4 12.5 336 11.5
2008-05-30 08:00:43 51°14.993 2°54.585 329.6 12.5 336 11.3
2008-05-30 08:00:48 51°15.009 2°54.574 329.6 12.5 336 11.2
2008-05-30 08:00:53 51°15.024 2°54.563 329.7 12.4 335 11
2008-05-30 08:00:58 51°15.04 2°54.551 329.6 12.4 335 11
2008-05-30 08:01:03 51°15.056 2°54.539 329.3 12.4 334 10.9
2008-05-30 08:01:08 51°15.071 2°54.527 329.2 12.4 334 11
2008-05-30 08:01:13 51°15.087 2°54.515 328.8 12.4 334 10.9
2008-05-30 08:01:18 51°15.102 2°54.502 328.9 12.4 333 11
2008-05-30 08:01:23 51°15.117 2°54.489 328.7 12.4 333 10.9
2008-05-30 08:01:28 51°15.133 2°54.477 328.8 12.4 334 10.8
2008-05-30 08:01:33 51°15.148 2°54.465 329.2 12.5 334 11.1
2008-05-30 08:01:38 51°15.164 2°54.453 329.7 12.4 335 11
2008-05-30 08:01:43 51°15.179 2°54.441 330.1 12.4 335 11.1
2008-05-30 08:01:48 51°15.195 2°54.43 330.1 12.5 335 11.2
2008-05-30 08:01:53 51°15.21 2°54.418 330 12.4 334 11.2
2008-05-30 08:01:58 51°15.226 2°54.406 329.8 12.5 335 11.3
2008-05-30 08:02:03 51°15.242 2°54.394 329.5 12.5 335 11.3
2008-05-30 08:02:08 51°15.258 2°54.383 329.7 12.5 335 11.2
2008-05-30 08:02:13 51°15.273 2°54.371 329.5 12.5 336 11.4
2008-05-30 08:02:18 51°15.289 2°54.36 329.6 12.5 336 11.5
2008-05-30 08:02:23 51°15.305 2°54.349 329.9 12.4 336 11.4
2008-05-30 08:02:28 51°15.321 2°54.337 329.8 12.4 335 11.6
2008-05-30 08:02:33 51°15.336 2°54.326 329.4 12.3 335 11.5
2008-05-30 08:02:38 51°15.351 2°54.314 329.1 12.4 334 11.8
2008-05-30 08:02:43 51°15.367 2°54.302 328.7 12.3 334 11.6
2008-05-30 08:02:48 51°15.382 2°54.291 328.7 12.3 334 11.8
2008-05-30 08:02:53 51°15.398 2°54.278 328.7 12.3 333 11.8
2008-05-30 08:02:58 51°15.413 2°54.265 327.5 12.3 332 11.9
2008-05-30 08:03:03 51°15.427 2°54.252 326.6 12.2 331 11.9
2008-05-30 08:03:08 51°15.442 2°54.239 325.8 12.2 330 12.1
2008-05-30 08:03:13 51°15.457 2°54.225 324.6 12.2 330 11.9
2008-05-30 08:03:18 51°15.471 2°54.211 324.2 12.1 328 12.1
2008-05-30 08:03:23 51°15.485 2°54.197 323.1 12.1 328 12.1
2008-05-30 08:03:28 51°15.5 2°54.183 322.7 12.2 328 12.2
2008-05-30 08:03:33 51°15.514 2°54.169 322.2 12.2 328 12.3
2008-05-30 08:03:38 51°15.528 2°54.155 322.2 12.2 328 12.3
2008-05-30 08:03:43 51°15.543 2°54.14 322.5 12.2 328 12.4
2008-05-30 08:03:48 51°15.557 2°54.126 322.2 12.2 328 12.5
2008-05-30 08:03:53 51°15.571 2°54.111 322.2 12.2 328 12.5
2008-05-30 08:03:58 51°15.586 2°54.097 322.1 12.1 328 12.5
2008-05-30 08:04:03 51°15.6 2°54.083 322.2 12.1 327 12.7
2008-05-30 08:04:08 51°15.614 2°54.068 322.2 12.1 327 12.7
2008-05-30 08:04:13 51°15.628 2°54.054 321.9 12.1 328 12.6
2008-05-30 08:04:18 51°15.642 2°54.039 322.4 12.2 328 12.9
2008-05-30 08:04:23 51°15.657 2°54.025 322.7 12.2 328 12.8
2008-05-30 08:04:28 51°15.671 2°54.011 322.9 12.2 329 12.9
2008-05-30 08:04:33 51°15.686 2°53.997 323.3 12.2 329 12.9
2008-05-30 08:04:38 51°15.701 2°53.984 323.6 12.3 329 13.3
2008-05-30 08:04:43 51°15.715 2°53.97 323.6 12.2 329 13.2
2008-05-30 08:04:48 51°15.73 2°53.956 323.3 12.2 329 13.3
2008-05-30 08:04:53 51°15.744 2°53.942 323.2 12.2 329 13.1
2008-05-30 08:04:58 51°15.759 2°53.928 323.2 12.2 329 13
2008-05-30 08:05:03 51°15.774 2°53.914 323.4 12.2 330 13.3
2008-05-30 08:05:08 51°15.788 2°53.901 323.7 12.2 331 13
2008-05-30 08:05:13 51°15.803 2°53.888 324.5 12.2 331 13.4
2008-05-30 08:05:18 51°15.818 2°53.875 325.1 12.3 331 13.2
2008-05-30 08:05:23 51°15.833 2°53.862 325.8 12.3 332 13.3
2008-05-30 08:05:28 51°15.848 2°53.849 326 12.3 332 13.3
2008-05-30 08:05:33 51°15.863 2°53.836 326.2 12.3 332 13.3
2008-05-30 08:05:38 51°15.878 2°53.824 326.5 12.3 332 13.4
2008-05-30 08:05:43 51°15.893 2°53.811 326.4 12.2 331 13.4
2008-05-30 08:05:48 51°15.908 2°53.797 325.7 12.2 330 13.5
2008-05-30 08:05:53 51°15.922 2°53.784 324.9 12.2 330 13.5
2008-05-30 08:05:58 51°15.937 2°53.77 324.1 12.2 329 13.6
2008-05-30 08:06:03 51°15.951 2°53.756 323.8 12.2 329 13.5
2008-05-30 08:06:08 51°15.966 2°53.742 323.4 12.2 330 13.4
2008-05-30 08:06:13 51°15.981 2°53.729 323.6 12.3 330 13.5
2008-05-30 08:06:18 51°15.996 2°53.715 323.9 12.3 330 13.4
2008-05-30 08:06:23 51°16.01 2°53.702 323.9 12.2 330 13.7
2008-05-30 08:06:28 51°16.025 2°53.688 323.5 12.3 330 13.7
2008-05-30 08:06:33 51°16.04 2°53.674 323.6 12.3 330 13.6
2008-05-30 08:06:38 51°16.055 2°53.661 323.7 12.3 330 13.6
2008-05-30 08:06:43 51°16.069 2°53.647 324 12.3 330 13.6
2008-05-30 08:06:48 51°16.084 2°53.634 323.6 12.3 330 13.6
2008-05-30 08:06:53 51°16.099 2°53.62 323.6 12.3 330 13.7
2008-05-30 08:06:58 51°16.113 2°53.606 323.7 12.2 330 13.7
2008-05-30 08:07:03 51°16.128 2°53.592 323.6 12.2 329 13.8
2008-05-30 08:07:08 51°16.143 2°53.579 323.1 12.2 330 13.8
2008-05-30 08:07:13 51°16.157 2°53.566 323.4 12.3 330 13.8
2008-05-30 08:07:18 51°16.172 2°53.553 323.8 12.3 330 13.8
2008-05-30 08:07:23 51°16.187 2°53.539 324.1 12.3 331 13.7
2008-05-30 08:07:28 51°16.202 2°53.526 324.2 12.2 330 13.8
2008-05-30 08:07:33 51°16.216 2°53.513 323.9 12.3 331 13.9
2008-05-30 08:07:38 51°16.231 2°53.499 323.8 12.2 330 13.9
2008-05-30 08:07:43 51°16.246 2°53.487 324.3 12.3 332 13.9
2008-05-30 08:07:48 51°16.261 2°53.474 325.1 12.3 331 13.8
2008-05-30 08:07:53 51°16.277 2°53.462 325.5 12.4 334 14
2008-05-30 08:07:58 51°16.292 2°53.449 326.9 12.4 333 14
2008-05-30 08:08:03 51°16.307 2°53.438 327.5 12.3 334 13.8
2008-05-30 08:08:08 51°16.323 2°53.426 328 12.4 334 14
2008-05-30 08:08:13 51°16.338 2°53.414 328.5 12.4 335 13.9
2008-05-30 08:08:18 51°16.354 2°53.403 329.1 12.4 335 13.9
2008-05-30 08:08:23 51°16.37 2°53.392 329.7 12.4 336 14
2008-05-30 08:08:28 51°16.386 2°53.38 330.1 12.4 336 13.9
2008-05-30 08:08:33 51°16.401 2°53.369 330.2 12.4 336 13.9
2008-05-30 08:08:38 51°16.417 2°53.358 330.2 12.4 337 14
2008-05-30 08:08:43 51°16.433 2°53.347 330.8 12.4 336 14.1
2008-05-30 08:08:48 51°16.448 2°53.335 331 12.4 334 14.1
2008-05-30 08:08:53 51°16.463 2°53.323 329.8 12.3 333 13.8
2008-05-30 08:08:58 51°16.479 2°53.311 328.7 12.4 334 14.1
2008-05-30 08:09:03 51°16.494 2°53.299 328.9 12.4 334 13.9
2008-05-30 08:09:08 51°16.51 2°53.288 329 12.4 336 13.9
2008-05-30 08:09:13 51°16.526 2°53.277 329.8 12.5 336 14
2008-05-30 08:09:18 51°16.541 2°53.266 330.3 12.4 336 13.9
2008-05-30 08:09:23 51°16.557 2°53.253 330.1 12.4 333 14
2008-05-30 08:09:28 51°16.572 2°53.241 328.6 12.4 333 13.9
2008-05-30 08:09:33 51°16.587 2°53.228 327.1 12.4 331 14
2008-05-30 08:09:38 51°16.602 2°53.215 325.9 12.4 331 13.9
2008-05-30 08:09:43 51°16.617 2°53.201 325.1 12.4 330 13.9
2008-05-30 08:09:48 51°16.632 2°53.188 324.3 12.3 330 13.8
2008-05-30 08:09:53 51°16.647 2°53.174 323.9 12.3 330 13.9
2008-05-30 08:09:58 51°16.661 2°53.16 323.6 12.3 330 13.9
2008-05-30 08:10:03 51°16.676 2°53.146 323.1 12.4 330 13.8
2008-05-30 08:10:08 51°16.691 2°53.132 323.2 12.4 330 13.7
2008-05-30 08:10:13 51°16.705 2°53.118 323.2 12.3 330 13.6
2008-05-30 08:10:18 51°16.72 2°53.104 323.1 12.3 330 13.7
2008-05-30 08:10:23 51°16.735 2°53.09 323 12.3 329 13.6
2008-05-30 08:10:28 51°16.749 2°53.076 322.9 12.2 329 13.5
2008-05-30 08:10:33 51°16.764 2°53.062 322.9 12.2 328 13.5
2008-05-30 08:10:38 51°16.779 2°53.049 322.4 12.2 329 13
2008-05-30 08:10:43 51°16.793 2°53.035 322.5 12.2 329 13
2008-05-30 08:10:48 51°16.808 2°53.021 322.7 12.3 329 12.7
2008-05-30 08:10:53 51°16.822 2°53.007 322.8 12.2 329 12.1
2008-05-30 08:10:58 51°16.836 2°52.992 322.9 12.2 328 11.6
2008-05-30 08:11:03 51°16.851 2°52.979 322.9 12.1 328 11.3
2008-05-30 08:11:08 51°16.865 2°52.964 322.7 12.1 328 11.1
2008-05-30 08:11:13 51°16.879 2°52.95 322.6 12.1 328 11
2008-05-30 08:11:18 51°16.894 2°52.935 322.5 12.2 328 10.9
2008-05-30 08:11:23 51°16.908 2°52.921 322.8 12.1 327 11.2
2008-05-30 08:11:28 51°16.922 2°52.905 322 12.2 325 11.3
2008-05-30 08:11:33 51°16.935 2°52.89 320.9 12.1 325 11.3
2008-05-30 08:11:38 51°16.949 2°52.875 320.4 12.1 324 11.7
2008-05-30 08:11:43 51°16.963 2°52.859 320 12.2 324 11.7
2008-05-30 08:11:48 51°16.976 2°52.843 319.7 12.1 323 11.4
2008-05-30 08:11:53 51°16.989 2°52.827 319.4 12.1 323 11.8
2008-05-30 08:11:58 51°17.003 2°52.811 319.3 12.1 323 11.9
2008-05-30 08:12:03 51°17.016 2°52.795 319.4 12 324 12
2008-05-30 08:12:08 51°17.03 2°52.779 320 12.2 324 12.3
2008-05-30 08:12:13 51°17.043 2°52.763 319.9 12.1 325 12.1
2008-05-30 08:12:18 51°17.057 2°52.748 320.3 12.1 324 12.5
2008-05-30 08:12:23 51°17.071 2°52.732 320.6 12.2 325 12.4
2008-05-30 08:12:28 51°17.085 2°52.717 321 12.2 325 12.5
2008-05-30 08:12:33 51°17.099 2°52.702 321.6 12.2 326 12.3
2008-05-30 08:12:38 51°17.114 2°52.687 322.4 12.3 327 12.4
2008-05-30 08:12:43 51°17.128 2°52.673 323 12.2 327 11.8
2008-05-30 08:12:48 51°17.142 2°52.658 323.2 12.2 328 11.8
2008-05-30 08:12:53 51°17.157 2°52.644 323.9 12.2 327 12.1
2008-05-30 08:12:58 51°17.171 2°52.628 323.6 12.3 326 12.1
2008-05-30 08:13:03 51°17.185 2°52.613 323.2 12.2 326 11.9
2008-05-30 08:13:08 51°17.199 2°52.598 322.2 12.3 326 12.2
2008-05-30 08:13:13 51°17.213 2°52.582 321.9 12.2 325 12
2008-05-30 08:13:18 51°17.227 2°52.567 321.4 12.2 325 12.2
2008-05-30 08:13:23 51°17.24 2°52.551 321 12.2 324 12.4
2008-05-30 08:13:28 51°17.254 2°52.535 320.5 12.2 325 12.3
2008-05-30 08:13:33 51°17.268 2°52.52 320.6 12.2 325 12.3
2008-05-30 08:13:38 51°17.282 2°52.504 321 12.2 325 12.1
2008-05-30 08:13:43 51°17.297 2°52.491 321.9 12.4 330 12.6
2008-05-30 08:13:48 51°17.312 2°52.477 324.5 12.3 331 12.3
2008-05-30 08:13:53 51°17.327 2°52.465 326.5 12.4 334 12.6
2008-05-30 08:13:58 51°17.343 2°52.454 329.6 12.5 336 12.4
2008-05-30 08:14:03 51°17.359 2°52.444 331.8 12.6 339 12.7
2008-05-30 08:14:08 51°17.376 2°52.435 333.8 12.5 341 12.6
2008-05-30 08:14:13 51°17.393 2°52.427 337.1 12.7 344 12.8
2008-05-30 08:14:18 51°17.41 2°52.42 339.7 12.7 345 12.7
2008-05-30 08:14:23 51°17.427 2°52.414 341.8 12.7 347 12.8
2008-05-30 08:14:28 51°17.444 2°52.408 343.6 12.8 349 12.9
2008-05-30 08:14:33 51°17.462 2°52.404 345.4 12.8 350 12.9
2008-05-30 08:14:38 51°17.479 2°52.399 346.9 12.8 350 12.9
2008-05-30 08:14:43 51°17.497 2°52.395 347.7 12.8 352 12.7
2008-05-30 08:14:48 51°17.514 2°52.391 348.5 12.8 351 12.8
2008-05-30 08:14:53 51°17.532 2°52.388 348.7 12.8 354 12.8
2008-05-30 08:14:58 51°17.55 2°52.385 350.3 12.8 354 12.5
2008-05-30 08:15:03 51°17.568 2°52.383 351.3 12.9 355 13
2008-05-30 08:15:08 51°17.586 2°52.381 352 13 356 12.7
2008-05-30 08:15:13 51°17.604 2°52.379 353.3 13 357 12.7
2008-05-30 08:15:18 51°17.622 2°52.378 354.3 13 357 12.9
2008-05-30 08:15:23 51°17.64 2°52.377 354.8 13 358 12.6
2008-05-30 08:15:28 51°17.658 2°52.376 355.4 13 359 12.8
2008-05-30 08:15:33 51°17.676 2°52.376 356.1 13 358 12.7
2008-05-30 08:15:38 51°17.694 2°52.374 356.2 13 358 12.6
2008-05-30 08:15:43 51°17.712 2°52.374 355.8 13 358 12.7
2008-05-30 08:15:48 51°17.73 2°52.372 355.6 13 356 12.9
2008-05-30 08:15:53 51°17.748 2°52.37 354.8 12.9 356 12.7
2008-05-30 08:15:58 51°17.766 2°52.368 353.8 12.9 357 12.6
2008-05-30 08:16:03 51°17.784 2°52.367 354 13 357 12.8
2008-05-30 08:16:08 51°17.802 2°52.366 354.8 13 358 12.7
2008-05-30 08:16:13 51°17.82 2°52.364 355.3 13 357 12.6
2008-05-30 08:16:18 51°17.838 2°52.363 355.4 13 357 12.7
2008-05-30 08:16:23 51°17.856 2°52.362 355.3 13.1 358 12.8
2008-05-30 08:16:28 51°17.874 2°52.361 355.3 13 357 12.7
2008-05-30 08:16:33 51°17.892 2°52.36 355.2 13 358 12.8
2008-05-30 08:16:38 51°17.91 2°52.359 355.1 13 358 12.9
2008-05-30 08:16:43 51°17.928 2°52.358 354.9 12.9 359 12.8
2008-05-30 08:16:48 51°17.946 2°52.36 356.5 13 4 12.7
2008-05-30 08:16:53 51°17.964 2°52.362 0.2 13 5 13
2008-05-30 08:16:58 51°17.982 2°52.366 2.7 13 7 12.9
2008-05-30 08:17:03 51°18 2°52.37 4.6 13.1 8 12.7
2008-05-30 08:17:08 51°18.018 2°52.376 6.4 13.1 10 12.9
2008-05-30 08:17:13 51°18.035 2°52.38 8.1 13.1 10 12.8
2008-05-30 08:17:18 51°18.053 2°52.387 9 13.2 13 13
2008-05-30 08:17:23 51°18.071 2°52.393 10.3 13.2 12 13
2008-05-30 08:17:28 51°18.089 2°52.4 11.3 13.1 13 12.8
2008-05-30 08:17:33 51°18.107 2°52.407 11.9 13.1 15 13.1
2008-05-30 08:17:38 51°18.124 2°52.414 13 13.1 14 13.1
2008-05-30 08:17:43 51°18.142 2°52.421 12.7 13.1 14 13.1
2008-05-30 08:17:48 51°18.16 2°52.428 12.9 13.1 15 13.1
2008-05-30 08:17:53 51°18.177 2°52.437 13.5 13.2 16 13.1
2008-05-30 08:17:58 51°18.195 2°52.444 13.4 13.2 15 13.1
2008-05-30 08:18:03 51°18.212 2°52.455 14.4 13.2 21 13.1
2008-05-30 08:18:08 51°18.229 2°52.464 17.9 13.2 19 13.2
2008-05-30 08:18:13 51°18.246 2°52.476 18.9 13.3 23 13.2
2008-05-30 08:18:18 51°18.263 2°52.487 20.8 13.3 22 13.3
2008-05-30 08:18:23 51°18.28 2°52.499 21.8 13.3 24 13.2
2008-05-30 08:18:28 51°18.297 2°52.511 22.7 13.3 23 13.3
2008-05-30 08:18:33 51°18.314 2°52.524 23.1 13.3 26 13.3
2008-05-30 08:18:38 51°18.331 2°52.536 24 13.3 24 13.4
2008-05-30 08:18:43 51°18.348 2°52.548 24.1 13.4 25 13.4
2008-05-30 08:18:48 51°18.365 2°52.56 23.9 13.3 24 13.3
2008-05-30 08:18:53 51°18.381 2°52.572 23.1 13.4 24 13.5
2008-05-30 08:18:58 51°18.399 2°52.583 23.1 13.3 22 13.5
2008-05-30 08:19:03 51°18.415 2°52.595 22 13.3 24 13.5
2008-05-30 08:19:08 51°18.432 2°52.606 21.7 13.2 22 13.5
2008-05-30 08:19:13 51°18.45 2°52.617 21.2 13.3 21 13.6
2008-05-30 08:19:18 51°18.467 2°52.628 20.2 13.3 22 13.5
2008-05-30 08:19:23 51°18.484 2°52.639 20.2 13.2 22 13.5
2008-05-30 08:19:28 51°18.501 2°52.649 20.5 13.2 21 13.7
2008-05-30 08:19:33 51°18.518 2°52.66 20 13.3 22 13.6
2008-05-30 08:19:38 51°18.535 2°52.67 19.9 13.3 20 13.6
2008-05-30 08:19:43 51°18.552 2°52.681 19.5 13.3 21 13.8
2008-05-30 08:19:48 51°18.569 2°52.692 19.5 13.3 22 13.7
2008-05-30 08:19:53 51°18.587 2°52.703 20.8 13.4 23 13.7
2008-05-30 08:19:58 51°18.604 2°52.715 21.3 13.4 23 13.7
2008-05-30 08:20:03 51°18.621 2°52.727 21.5 13.3 23 13.6
2008-05-30 08:20:08 51°18.638 2°52.738 22.1 13.4 23 13.9
2008-05-30 08:20:13 51°18.655 2°52.749 21.7 13.3 22 13.7
2008-05-30 08:20:18 51°18.672 2°52.76 21.1 13.3 22 13.9
2008-05-30 08:20:23 51°18.689 2°52.771 20.7 13.3 22 13.8
2008-05-30 08:20:28 51°18.706 2°52.782 21 13.4 22 13.9
2008-05-30 08:20:33 51°18.723 2°52.794 21 13.4 22 14
2008-05-30 08:20:38 51°18.741 2°52.805 21 13.3 22 13.9
2008-05-30 08:20:43 51°18.758 2°52.815 21 13.3 21 14.1
2008-05-30 08:20:48 51°18.775 2°52.825 19.9 13.3 20 14
2008-05-30 08:20:53 51°18.793 2°52.835 18.8 13.4 19 14
2008-05-30 08:20:58 51°18.81 2°52.845 17.9 13.3 19 14
2008-05-30 08:21:03 51°18.828 2°52.854 17.7 13.3 18 14.2
2008-05-30 08:21:08 51°18.845 2°52.863 16.7 13.3 17 14.2
2008-05-30 08:21:13 51°18.863 2°52.872 15.9 13.2 18 14
2008-05-30 08:21:18 51°18.881 2°52.88 15.3 13.3 16 14.4
2008-05-30 08:21:23 51°18.898 2°52.888 14.4 13.2 18 14.1
2008-05-30 08:21:28 51°18.915 2°52.897 14.9 13.2 17 14.3
2008-05-30 08:21:33 51°18.933 2°52.905 15 13.2 17 14.4
2008-05-30 08:21:38 51°18.951 2°52.913 14.4 13.2 16 14.3
2008-05-30 08:21:43 51°18.969 2°52.922 14.3 13.3 17 14.4
2008-05-30 08:21:48 51°18.986 2°52.93 14.4 13.2 17 14.3
2008-05-30 08:21:53 51°19.004 2°52.939 14.4 13.3 17 14.5
2008-05-30 08:21:58 51°19.021 2°52.947 14.4 13.3 17 14.4
2008-05-30 08:22:03 51°19.039 2°52.956 14.5 13.2 16 14.5
2008-05-30 08:22:08 51°19.057 2°52.964 14.4 13.3 17 14.6
2008-05-30 08:22:13 51°19.074 2°52.973 14.5 13.2 17 14.5
2008-05-30 08:22:18 51°19.092 2°52.981 14.4 13.3 16 14.7
2008-05-30 08:22:23 51°19.11 2°52.99 14.5 13.3 17 14.7
2008-05-30 08:22:28 51°19.127 2°52.998 14.8 13.2 17 14.7
2008-05-30 08:22:33 51°19.144 2°53.006 14.6 13.1 17 14.9
2008-05-30 08:22:37 51°19.158 2°53.012 15 12.3 16 14.9
2008-05-30 08:22:43 51°19.176 2°53.021 14.6 11.5 16 15
2008-05-30 08:22:48 51°19.191 2°53.027 13.7 10.8 16 15
2008-05-30 08:22:53 51°19.204 2°53.034 13.1 10.3 17 15
2008-05-30 08:22:58 51°19.217 2°53.04 13 9.9 18 15.1
2008-05-30 08:23:03 51°19.229 2°53.047 13.5 9.4 18 15.2
2008-05-30 08:23:08 51°19.241 2°53.054 13.8 9 20 15.3
2008-05-30 08:23:13 51°19.252 2°53.06 14.7 8.7 20 15.3
2008-05-30 08:23:18 51°19.263 2°53.067 15.1 8.6 21 15.3
2008-05-30 08:23:23 51°19.274 2°53.073 15.9 8.1 20 15.4
2008-05-30 08:23:28 51°19.284 2°53.078 15.9 7.6 16 15.6
2008-05-30 08:23:33 51°19.294 2°53.08 11.6 7.2 10 15.5
2008-05-30 08:23:38 51°19.303 2°53.082 4.6 6.7 6 15.4
2008-05-30 08:23:43 51°19.311 2°53.082 357.5 6.2 1 15.5
2008-05-30 08:23:48 51°19.319 2°53.08 350.1 5.8 354 15.6
2008-05-30 08:23:53 51°19.327 2°53.078 341.8 5.4 349 15.5
2008-05-30 08:23:58 51°19.333 2°53.074 336 5.1 344 15.6
2008-05-30 08:24:03 51°19.339 2°53.07 328.7 4.8 338 15.5
2008-05-30 08:24:08 51°19.345 2°53.066 321.7 4.4 332 15.5
2008-05-30 08:24:13 51°19.349 2°53.061 314.8 4 325 15.7
2008-05-30 08:24:18 51°19.353 2°53.055 307.6 3.8 319 15.7
2008-05-30 08:24:23 51°19.356 2°53.049 300.2 3.8 309 15.7
2008-05-30 08:24:28 51°19.359 2°53.041 293 3.9 298 15.9
2008-05-30 08:24:33 51°19.36 2°53.032 282 3.9 284 15.8
2008-05-30 08:24:38 51°19.36 2°53.023 274.3 4.1 273 15.8
2008-05-30 08:24:43 51°19.359 2°53.013 265.1 4.4 265 15.8
2008-05-30 08:24:48 51°19.358 2°53.003 258.9 4.8 263 15.9
2008-05-30 08:24:53 51°19.357 2°52.992 255.5 5.2 261 15.9
2008-05-30 08:24:58 51°19.355 2°52.98 253.8 5.5 257 16
2008-05-30 08:25:03 51°19.353 2°52.967 252.9 5.7 258 15.9
2008-05-30 08:25:08 51°19.352 2°52.954 252.6 6.1 260 16
2008-05-30 08:25:13 51°19.351 2°52.94 253.8 6.2 261 16
2008-05-30 08:25:18 51°19.35 2°52.926 255.8 6.4 265 16.1
2008-05-30 08:25:23 51°19.35 2°52.911 258.9 6.6 267 16.2
2008-05-30 08:25:28 51°19.35 2°52.896 262.2 6.7 272 16.2
2008-05-30 08:25:33 51°19.35 2°52.881 265.1 6.8 271 16.2
2008-05-30 08:25:38 51°19.35 2°52.866 266.3 6.9 271 16.1
2008-05-30 08:25:43 51°19.35 2°52.85 266 6.9 268 16.1
2008-05-30 08:25:48 51°19.349 2°52.835 264.3 7 264 16.2
2008-05-30 08:25:53 51°19.348 2°52.82 261.7 6.6 263 16.3
2008-05-30 08:25:58 51°19.347 2°52.807 259.3 6.1 259 16.1
2008-05-30 08:26:03 51°19.345 2°52.795 256 5.6 257 16.2
2008-05-30 08:26:08 51°19.343 2°52.784 253 5.2 254 16.3
2008-05-30 08:26:13 51°19.341 2°52.774 250.9 4.9 251 16.3
2008-05-30 08:26:18 51°19.339 2°52.764 249.3 4.7 253 16.4
2008-05-30 08:26:23 51°19.337 2°52.755 248.1 4.4 251 16.4
2008-05-30 08:26:28 51°19.335 2°52.746 247.2 4.2 254 16.4
2008-05-30 08:26:33 51°19.334 2°52.737 248.3 4 257 16.4
2008-05-30 08:26:38 51°19.333 2°52.729 251 3.8 261 16.4
2008-05-30 08:26:43 51°19.333 2°52.721 254.7 3.6 267 16.5
2008-05-30 08:26:48 51°19.333 2°52.714 258.5 3.4 271 16.6
2008-05-30 08:26:53 51°19.334 2°52.707 262.4 3.2 274 16.6
2008-05-30 08:26:58 51°19.334 2°52.7 265.2 3.2 277 16.7
2008-05-30 08:27:03 51°19.335 2°52.692 266.8 3.2 279 16.6
2008-05-30 08:27:08 51°19.335 2°52.686 266.9 3.1 280 16.5
2008-05-30 08:27:13 51°19.336 2°52.679 266.6 3 278 16.5
2008-05-30 08:27:18 51°19.336 2°52.673 266.2 2.8 278 16.4
2008-05-30 08:27:23 51°19.337 2°52.667 265.5 2.7 277 16.6
2008-05-30 08:27:28 51°19.338 2°52.661 265 2.7 277 16.7
2008-05-30 08:27:33 51°19.338 2°52.655 264.7 2.6 274 16.7
2008-05-30 08:27:38 51°19.338 2°52.65 264.2 2.5 279 16.6
2008-05-30 08:27:43 51°19.339 2°52.645 263.8 2.4 278 16.6
2008-05-30 08:27:48 51°19.339 2°52.639 263.5 2.4 280 16.6
2008-05-30 08:27:53 51°19.34 2°52.635 263.4 2.2 276 16.7
2008-05-30 08:27:58 51°19.34 2°52.63 263.4 2.2 277 16.7
2008-05-30 08:28:03 51°19.34 2°52.625 263.2 2.2 276 16.9
2008-05-30 08:28:08 51°19.341 2°52.62 263.1 2 279 16.8
2008-05-30 08:28:13 51°19.341 2°52.616 262.5 2 277 16.8
2008-05-30 08:28:18 51°19.341 2°52.611 261.7 2 276 16.8
2008-05-30 08:28:23 51°19.342 2°52.607 261.3 2 276 16.8
2008-05-30 08:28:28 51°19.342 2°52.602 261 2.1 277 16.8
2008-05-30 08:28:33 51°19.342 2°52.598 260.9 2.1 273 16.7
2008-05-30 08:28:38 51°19.343 2°52.593 260.9 2.1 275 16.7
2008-05-30 08:28:43 51°19.343 2°52.588 261.1 2.2 275 16.8
2008-05-30 08:28:48 51°19.343 2°52.583 261.4 2.3 277 16.8
2008-05-30 08:28:53 51°19.344 2°52.578 261.9 2.2 276 16.9
2008-05-30 08:28:58 51°19.344 2°52.573 262.2 2.3 275 16.9
2008-05-30 08:29:03 51°19.344 2°52.568 262 2.3 273 16.9
2008-05-30 08:29:08 51°19.344 2°52.563 261.9 2.3 273 16.9
2008-05-30 08:29:13 51°19.344 2°52.558 261.5 2.3 271 17
2008-05-30 08:29:18 51°19.344 2°52.552 261.2 2.4 270 17
2008-05-30 08:29:23 51°19.344 2°52.547 260 2.4 270 16.9
2008-05-30 08:29:28 51°19.344 2°52.542 259 2.3 267 16.9
2008-05-30 08:29:33 51°19.344 2°52.537 258.3 2.3 265 17.1
2008-05-30 08:29:38 51°19.344 2°52.532 257.3 2.2 262 16.9
2008-05-30 08:29:43 51°19.343 2°52.527 256.1 2.2 265 17
2008-05-30 08:29:48 51°19.343 2°52.523 255.1 2 259 17.1
2008-05-30 08:29:53 51°19.342 2°52.519 253.9 1.9 260 17
2008-05-30 08:29:58 51°19.342 2°52.515 252.7 1.8 258 17
2008-05-30 08:30:03 51°19.341 2°52.511 251.3 1.7 255 16.9
2008-05-30 08:30:08 51°19.341 2°52.508 249.6 1.6 253 16.9
2008-05-30 08:30:13 51°19.34 2°52.505 248 1.5 248 17
2008-05-30 08:30:18 51°19.339 2°52.502 247 1.5 248 17
2008-05-30 08:30:23 51°19.338 2°52.499 246 1.3 246 17
2008-05-30 08:30:28 51°19.338 2°52.497 245.2 1.3 243 17
2008-05-30 08:30:33 51°19.337 2°52.494 244.2 1.2 241 17
2008-05-30 08:30:38 51°19.336 2°52.492 243.3 1.1 237 16.9
2008-05-30 08:30:43 51°19.335 2°52.49 242.4 1 236 16.9
2008-05-30 08:30:48 51°19.334 2°52.488 241.6 1 233 17
2008-05-30 08:30:53 51°19.334 2°52.487 241 0.9 236 17
2008-05-30 08:30:58 51°19.333 2°52.485 240.7 0.9 231 17
2008-05-30 08:31:03 51°19.333 2°52.484 240.2 0.7 228 17
2008-05-30 08:31:08 51°19.332 2°52.482 239.8 0.7 222 17
2008-05-30 08:31:13 51°19.331 2°52.482 239.4 0.6 216 17.1
2008-05-30 08:31:18 51°19.331 2°52.481 239.1 0.6 221 17
2008-05-30 08:31:23 51°19.33 2°52.48 238.9 0.6 217 17
2008-05-30 08:31:28 51°19.329 2°52.48 238.5 0.5 214 17
2008-05-30 08:31:33 51°19.329 2°52.479 238.4 0.5 219 17
2008-05-30 08:31:38 51°19.328 2°52.479 238 0.4 201 16.9
2008-05-30 08:31:43 51°19.328 2°52.479 237.5 0.4 200 17
2008-05-30 08:31:48 51°19.327 2°52.479 237.3 0.3 200 17
2008-05-30 08:31:53 51°19.327 2°52.479 237.2 0.3 186 17
2008-05-30 08:31:58 51°19.326 2°52.479 237 0.3 173 17
2008-05-30 08:32:03 51°19.326 2°52.479 236.8 0.3 175 17
2008-05-30 08:32:08 51°19.326 2°52.479 236.7 0.2 172 17.1
2008-05-30 08:32:13 51°19.325 2°52.48 236.7 0.3 159 17
2008-05-30 08:32:18 51°19.325 2°52.48 236.6 0.3 147 17
2008-05-30 08:32:23 51°19.324 2°52.481 236.6 0.3 142 17
2008-05-30 08:32:28 51°19.324 2°52.481 236.7 0.3 137 17
2008-05-30 08:32:33 51°19.324 2°52.482 237 0.4 133 17
2008-05-30 08:32:38 51°19.323 2°52.482 237.3 0.3 142 17.1
2008-05-30 08:32:43 51°19.323 2°52.483 237.9 0.3 120 17
2008-05-30 08:32:48 51°19.323 2°52.483 238.1 0.4 115 17
2008-05-30 08:32:53 51°19.323 2°52.484 238.4 0.4 114 17.1
2008-05-30 08:32:58 51°19.322 2°52.485 238.5 0.4 122 17
2008-05-30 08:33:03 51°19.322 2°52.486 238.4 0.3 118 16.8
2008-05-30 08:33:08 51°19.322 2°52.486 238.6 0.4 121 16.9
2008-05-30 08:33:13 51°19.322 2°52.487 238.9 0.3 114 17
2008-05-30 08:33:18 51°19.322 2°52.487 239.4 0.3 114 17
2008-05-30 08:33:23 51°19.322 2°52.488 239.5 0.4 116 16.9
2008-05-30 08:33:28 51°19.321 2°52.488 239.5 0.4 110 16.9
2008-05-30 08:33:33 51°19.321 2°52.489 239.8 0.4 117 16.9
2008-05-30 08:33:38 51°19.321 2°52.489 240 0.3 109 17
2008-05-30 08:33:43 51°19.321 2°52.49 240.5 0.3 128 16.9
2008-05-30 08:33:48 51°19.321 2°52.491 240.4 0.2 127 16.9
2008-05-30 08:33:53 51°19.32 2°52.491 240.3 0.3 132 16.8
2008-05-30 08:33:58 51°19.32 2°52.492 240.1 0.3 129 16.9
2008-05-30 08:34:03 51°19.32 2°52.492 239.8 0.2 131 17
2008-05-30 08:34:08 51°19.32 2°52.493 239.9 0.2 135 16.9
2008-05-30 08:34:13 51°19.32 2°52.493 240 0.3 138 17
2008-05-30 08:34:18 51°19.319 2°52.494 239.8 0.3 140 17
2008-05-30 08:34:23 51°19.319 2°52.494 239.8 0.2 149 17
2008-05-30 08:34:28 51°19.319 2°52.494 239.6 0.2 150 17
2008-05-30 08:34:33 51°19.318 2°52.494 239.8 0.2 162 16.9
2008-05-30 08:34:38 51°19.318 2°52.495 239.5 0.3 157 16.9
2008-05-30 08:34:43 51°19.317 2°52.495 239.3 0.3 163 16.9
2008-05-30 08:34:48 51°19.317 2°52.495 239.3 0.3 166 16.9
2008-05-30 08:34:53 51°19.317 2°52.495 239.1 0.3 163 16.9
2008-05-30 08:34:58 51°19.316 2°52.496 238.9 0.3 163 16.9
2008-05-30 08:35:03 51°19.316 2°52.496 238.8 0.4 159 16.9
2008-05-30 08:35:08 51°19.315 2°52.496 238.7 0.4 164 17
2008-05-30 08:35:13 51°19.315 2°52.496 238.4 0.4 178 17
2008-05-30 08:35:18 51°19.314 2°52.496 238 0.4 174 16.9
2008-05-30 08:35:23 51°19.314 2°52.496 237.6 0.4 172 16.9
2008-05-30 08:35:28 51°19.313 2°52.496 237.4 0.4 162 16.8
2008-05-30 08:35:33 51°19.313 2°52.496 237.2 0.3 168 16.9
2008-05-30 08:35:38 51°19.312 2°52.497 237.2 0.4 168 16.8
2008-05-30 08:35:43 51°19.312 2°52.497 237.1 0.4 176 16.9
2008-05-30 08:35:48 51°19.311 2°52.497 237.2 0.4 171 16.9
2008-05-30 08:35:53 51°19.311 2°52.497 237.6 0.4 181 17
2008-05-30 08:35:58 51°19.31 2°52.496 238 0.3 198 16.9
2008-05-30 08:36:03 51°19.31 2°52.496 238.1 0.3 195 16.9
2008-05-30 08:36:08 51°19.309 2°52.496 239 0.3 201 16.9
2008-05-30 08:36:13 51°19.309 2°52.496 239.2 0.3 189 16.8
2008-05-30 08:36:18 51°19.308 2°52.496 240.3 0.2 200 16.8
2008-05-30 08:36:23 51°19.308 2°52.496 241.4 0.3 196 16.8
2008-05-30 08:36:28 51°19.308 2°52.496 242.4 0.2 216 16.8
2008-05-30 08:36:33 51°19.308 2°52.496 243.3 0.2 193 16.8
2008-05-30 08:36:38 51°19.308 2°52.495 244.5 0.1 201 16.9
2008-05-30 08:36:43 51°19.308 2°52.495 245.1 0.2 195 16.9
2008-05-30 08:36:48 51°19.307 2°52.495 245.3 0.2 244 16.8
2008-05-30 08:36:53 51°19.307 2°52.495 245.5 0.2 212 16.7
2008-05-30 08:36:58 51°19.307 2°52.494 245.6 0.1 186 16.8
2008-05-30 08:37:03 51°19.307 2°52.495 245.7 0.2 183 16.8
2008-05-30 08:37:08 51°19.306 2°52.494 245.8 0.1 188 16.8
2008-05-30 08:37:13 51°19.306 2°52.494 246 0.2 173 16.9
2008-05-30 08:37:18 51°19.306 2°52.494 246.6 0.2 206 17
2008-05-30 08:37:23 51°19.306 2°52.494 246.4 0.1 202 16.9
2008-05-30 08:37:28 51°19.305 2°52.494 246 0.2 190 16.8
2008-05-30 08:37:33 51°19.305 2°52.494 245.5 0.2 189 16.7
2008-05-30 08:37:38 51°19.305 2°52.494 245 0.1 236 16.8
2008-05-30 08:37:43 51°19.305 2°52.494 244.5 0.1 196 16.8
2008-05-30 08:37:48 51°19.305 2°52.493 244.7 0.2 197 16.9
2008-05-30 08:37:53 51°19.304 2°52.493 244.3 0.2 194 16.9
2008-05-30 08:37:58 51°19.304 2°52.493 243.9 0.1 185 16.9
2008-05-30 08:38:03 51°19.304 2°52.493 243.8 0.2 177 17
2008-05-30 08:38:08 51°19.304 2°52.493 243.7 0.2 174 16.9
2008-05-30 08:38:13 51°19.304 2°52.493 243.8 0.2 176 16.9
2008-05-30 08:38:18 51°19.303 2°52.493 243.9 0.2 229 17
2008-05-30 08:38:23 51°19.303 2°52.493 244.1 0.2 240 16.9
2008-05-30 08:38:28 51°19.303 2°52.493 244.2 0.2 189 16.8
2008-05-30 08:38:33 51°19.303 2°52.492 244.4 0.1 208 16.7
2008-05-30 08:38:38 51°19.303 2°52.492 244 0.2 191 16.7
2008-05-30 08:38:43 51°19.302 2°52.492 244.4 0.2 226 16.8
2008-05-30 08:38:48 51°19.302 2°52.491 244.6 0.2 222 16.8
2008-05-30 08:38:53 51°19.302 2°52.491 244.8 0.2 238 16.8
2008-05-30 08:38:58 51°19.302 2°52.491 245.3 0.2 225 16.8
2008-05-30 08:39:03 51°19.301 2°52.491 244.9 0.2 209 16.8
2008-05-30 08:39:08 51°19.301 2°52.491 245 0.1 211 16.8
2008-05-30 08:39:13 51°19.301 2°52.491 245.2 0.2 191 16.9
2008-05-30 08:39:18 51°19.301 2°52.491 245.6 0.2 207 16.9
2008-05-30 08:39:23 51°19.3 2°52.491 245.9 0.2 209 16.9
2008-05-30 08:39:28 51°19.3 2°52.49 245.9 0.2 214 16.9
2008-05-30 08:39:33 51°19.3 2°52.49 245.7 0.2 192 16.8
2008-05-30 08:39:38 51°19.299 2°52.49 245.9 0.2 213 16.9
2008-05-30 08:39:43 51°19.299 2°52.49 246 0.1 216 16.9
2008-05-30 08:39:48 51°19.299 2°52.49 246.2 0.3 184 16.8
2008-05-30 08:39:53 51°19.299 2°52.49 246.1 0.2 183 16.7
2008-05-30 08:39:58 51°19.299 2°52.49 246 0.2 181 16.7
2008-05-30 08:40:03 51°19.298 2°52.49 246.2 0.3 172 16.7
2008-05-30 08:40:08 51°19.298 2°52.49 246.3 0.2 170 16.7
2008-05-30 08:40:13 51°19.298 2°52.489 246.3 0.2 183 16.9
2008-05-30 08:40:18 51°19.298 2°52.489 246.7 0.1 192 16.9
2008-05-30 08:40:23 51°19.297 2°52.49 246.9 0.2 175 16.9
2008-05-30 08:40:28 51°19.297 2°52.49 247 0.1 225 16.9
2008-05-30 08:40:33 51°19.297 2°52.489 246.9 0.1 204 16.9
2008-05-30 08:40:38 51°19.297 2°52.489 247.1 0.2 197 16.8
2008-05-30 08:40:43 51°19.296 2°52.489 247 0.2 185 16.9
2008-05-30 08:40:48 51°19.296 2°52.489 247.4 0.1 205 16.8
2008-05-30 08:40:53 51°19.296 2°52.489 247.4 0.2 209 16.8
2008-05-30 08:40:58 51°19.296 2°52.489 247.3 0.2 205 16.7
2008-05-30 08:41:03 51°19.295 2°52.489 247 0.2 192 16.7
2008-05-30 08:41:08 51°19.295 2°52.488 247.2 0.2 204 16.8
2008-05-30 08:41:13 51°19.295 2°52.488 247.3 0.1 229 16.7
2008-05-30 08:41:18 51°19.295 2°52.488 247.4 0.1 226 16.8
2008-05-30 08:41:23 51°19.295 2°52.487 247.7 0.2 229 16.8
2008-05-30 08:41:28 51°19.295 2°52.487 247.9 0.2 211 16.8
2008-05-30 08:41:33 51°19.295 2°52.487 248.2 0.1 227 16.8
2008-05-30 08:41:38 51°19.294 2°52.486 248.8 0.2 232 16.9
2008-05-30 08:41:43 51°19.294 2°52.486 249.5 0.2 250 16.8
2008-05-30 08:41:48 51°19.294 2°52.486 250.1 0.2 240 16.8
2008-05-30 08:41:53 51°19.294 2°52.485 251 0.1 260 16.9
2008-05-30 08:41:58 51°19.294 2°52.485 251.8 0.2 250 16.8
2008-05-30 08:42:03 51°19.294 2°52.485 252.9 0.2 255 16.8
2008-05-30 08:42:08 51°19.294 2°52.484 254.3 0.1 285 16.8
2008-05-30 08:42:13 51°19.294 2°52.484 255.7 0.1 282 16.9
2008-05-30 08:42:18 51°19.294 2°52.484 257 0.2 304 16.9
2008-05-30 08:42:23 51°19.294 2°52.483 258.1 0.3 324 16.8
2008-05-30 08:42:28 51°19.295 2°52.483 259.1 0.3 328 16.8
2008-05-30 08:42:33 51°19.295 2°52.483 260.7 0.3 322 16.7
2008-05-30 08:42:38 51°19.295 2°52.482 261.2 0.1 310 16.7
2008-05-30 08:42:43 51°19.295 2°52.482 262.5 0.2 315 16.7
2008-05-30 08:42:48 51°19.296 2°52.482 263.6 0.3 330 16.6
2008-05-30 08:42:53 51°19.296 2°52.482 264.8 0.3 347 16.6
2008-05-30 08:42:58 51°19.297 2°52.482 266.1 0.4 349 16.7
2008-05-30 08:43:03 51°19.298 2°52.481 267.4 0.4 339 16.7
2008-05-30 08:43:08 51°19.298 2°52.481 268.6 0.4 344 16.8
2008-05-30 08:43:13 51°19.299 2°52.481 270 0.5 346 16.9
2008-05-30 08:43:18 51°19.3 2°52.481 271.2 0.6 350 16.9
2008-05-30 08:43:23 51°19.301 2°52.48 272.2 0.7 347 16.9
2008-05-30 08:43:28 51°19.302 2°52.48 273.4 0.7 354 16.9
2008-05-30 08:43:33 51°19.302 2°52.48 274.4 0.6 353 16.9
2008-05-30 08:43:38 51°19.303 2°52.48 275.5 0.6 352 17
2008-05-30 08:43:43 51°19.304 2°52.479 275.7 0.6 347 16.9
2008-05-30 08:43:48 51°19.305 2°52.479 275.8 0.6 354 16.8
2008-05-30 08:43:53 51°19.306 2°52.479 275.7 0.7 355 16.8
2008-05-30 08:43:58 51°19.307 2°52.479 275.7 0.6 351 16.8
2008-05-30 08:44:03 51°19.308 2°52.479 275.7 0.7 353 16.9
2008-05-30 08:44:08 51°19.309 2°52.479 275.5 0.7 348 16.9
2008-05-30 08:44:13 51°19.31 2°52.478 275 0.7 350 16.9
2008-05-30 08:44:18 51°19.31 2°52.478 274.4 0.7 349 16.9
2008-05-30 08:44:23 51°19.311 2°52.478 273.8 0.6 350 16.8
2008-05-30 08:44:28 51°19.312 2°52.478 273.1 0.6 352 16.9
2008-05-30 08:44:33 51°19.313 2°52.477 272.2 0.6 351 17
2008-05-30 08:44:38 51°19.314 2°52.477 271.2 0.6 354 17
2008-05-30 08:44:43 51°19.314 2°52.477 269.9 0.5 353 16.9
2008-05-30 08:44:48 51°19.315 2°52.476 268.2 0.4 346 16.8
2008-05-30 08:44:53 51°19.316 2°52.476 266.2 0.5 347 16.7
2008-05-30 08:44:58 51°19.316 2°52.476 264.4 0.3 354 16.7
2008-05-30 08:45:03 51°19.317 2°52.476 262.5 0.3 1 16.7
2008-05-30 08:45:08 51°19.317 2°52.476 260.6 0.3 353 16.7
2008-05-30 08:45:13 51°19.317 2°52.476 258.6 0.2 349 16.8
2008-05-30 08:45:18 51°19.318 2°52.475 256.5 0.3 342 16.9
2008-05-30 08:45:23 51°19.318 2°52.476 254.1 0.2 8 16.9
2008-05-30 08:45:28 51°19.318 2°52.476 251.6 0.1 58 16.9
2008-05-30 08:45:33 51°19.318 2°52.476 249.1 0.1 99 16.9
2008-05-30 08:45:38 51°19.318 2°52.476 247 0.1 132 16.9
2008-05-30 08:45:43 51°19.318 2°52.476 245.1 0.1 309 16.9
2008-05-30 08:45:48 51°19.318 2°52.476 243.7 0.2 163 16.9
2008-05-30 08:45:53 51°19.317 2°52.476 242.4 0.2 168 16.8
2008-05-30 08:45:58 51°19.317 2°52.477 241.4 0.1 151 16.8
2008-05-30 08:46:03 51°19.317 2°52.477 240.4 0.3 140 16.8
2008-05-30 08:46:08 51°19.317 2°52.478 240.1 0.2 145 16.8
2008-05-30 08:46:13 51°19.317 2°52.478 240.1 0.3 139 17
2008-05-30 08:46:18 51°19.316 2°52.478 240.5 0.2 140 17.1
2008-05-30 08:46:23 51°19.316 2°52.479 240.9 0.3 138 17
2008-05-30 08:46:28 51°19.316 2°52.479 241.4 0.2 138 17
2008-05-30 08:46:33 51°19.315 2°52.479 241.6 0.3 143 17
2008-05-30 08:46:38 51°19.315 2°52.48 242 0.2 146 17
2008-05-30 08:46:43 51°19.315 2°52.48 242.6 0.2 149 17
2008-05-30 08:46:48 51°19.315 2°52.48 243.1 0.2 150 17
2008-05-30 08:46:53 51°19.314 2°52.48 243.7 0.2 147 16.9
2008-05-30 08:46:58 51°19.314 2°52.48 244 0.2 144 17
2008-05-30 08:47:03 51°19.314 2°52.481 244.4 0.2 137 16.9
2008-05-30 08:47:08 51°19.314 2°52.481 244.6 0.1 140 16.9
2008-05-30 08:47:13 51°19.314 2°52.481 245.2 0.1 147 16.9
2008-05-30 08:47:18 51°19.314 2°52.481 245.6 0.2 151 16.9
2008-05-30 08:47:23 51°19.314 2°52.482 246.2 -999 146 16.9
2008-05-30 08:47:28 51°19.314 2°52.482 246.9 -999 202 16.8
2008-05-30 08:47:33 51°19.313 2°52.482 247.6 -999 147 16.8
2008-05-30 08:47:38 51°19.313 2°52.482 248.2 0.1 127 16.8
2008-05-30 08:47:43 51°19.313 2°52.482 248.7 -999 98 16.9
2008-05-30 08:47:48 51°19.313 2°52.482 249.3 -999 18 16.9
2008-05-30 08:47:53 51°19.313 2°52.482 249.9 -999 79 16.9
2008-05-30 08:47:58 51°19.313 2°52.482 250.4 -999 295 16.9
2008-05-30 08:48:03 51°19.313 2°52.482 250.7 0.1 281 16.9
2008-05-30 08:48:08 51°19.313 2°52.482 251 0.1 344 16.9
2008-05-30 08:48:13 51°19.313 2°52.482 251.4 0.1 291 17
2008-05-30 08:48:18 51°19.313 2°52.482 251.6 -999 263 16.8
2008-05-30 08:48:23 51°19.313 2°52.482 251.6 -999 37 16.8
2008-05-30 08:48:28 51°19.313 2°52.482 251.9 -999 140 16.9
2008-05-30 08:48:33 51°19.314 2°52.482 252 -999 31 16.8
2008-05-30 08:48:38 51°19.314 2°52.482 252.3 -999 2 16.8
2008-05-30 08:48:43 51°19.314 2°52.482 252.7 0.1 9 16.9
2008-05-30 08:48:48 51°19.314 2°52.482 253.2 0.1 6 16.9
2008-05-30 08:48:53 51°19.314 2°52.482 253.4 0.1 3 16.9
2008-05-30 08:48:58 51°19.314 2°52.482 253.9 0.1 6 16.9
2008-05-30 08:49:03 51°19.314 2°52.482 254.4 0.2 355 17
2008-05-30 08:49:08 51°19.314 2°52.482 254.9 0.1 40 16.9
2008-05-30 08:49:13 51°19.314 2°52.482 255.2 0.1 26 16.9
2008-05-30 08:49:18 51°19.314 2°52.482 255.4 0.1 90 17
2008-05-30 08:49:23 51°19.315 2°52.482 255.5 0.2 1 17
2008-05-30 08:49:28 51°19.315 2°52.483 255.9 0.2 2 17
2008-05-30 08:49:33 51°19.315 2°52.483 255.9 0.1 17 16.9
2008-05-30 08:49:38 51°19.315 2°52.483 255.4 0.2 3 16.8
2008-05-30 08:49:43 51°19.315 2°52.483 255.2 0.1 18 16.8
2008-05-30 08:49:48 51°19.315 2°52.483 254.8 0.2 354 16.7
2008-05-30 08:49:53 51°19.316 2°52.483 254.8 0.2 358 16.9
2008-05-30 08:49:58 51°19.316 2°52.483 254.8 0.1 26 16.8
2008-05-30 08:50:03 51°19.316 2°52.484 254.7 0.1 85 16.8
2008-05-30 08:50:08 51°19.316 2°52.484 254.6 0.2 25 16.7
2008-05-30 08:50:13 51°19.316 2°52.484 254.4 0.1 34 16.8
2008-05-30 08:50:18 51°19.316 2°52.484 254.2 0.1 357 16.9
2008-05-30 08:50:23 51°19.316 2°52.484 254 0.1 30 16.8
2008-05-30 08:50:28 51°19.317 2°52.485 254 0.1 44 16.8
2008-05-30 08:50:33 51°19.317 2°52.485 254.3 0.1 24 17
2008-05-30 08:50:38 51°19.317 2°52.485 254 0.2 32 16.9
2008-05-30 08:50:43 51°19.317 2°52.485 253.9 0.1 45 16.9
2008-05-30 08:50:48 51°19.317 2°52.485 253.9 0.1 46 16.8
2008-05-30 08:50:53 51°19.317 2°52.485 253.9 0.1 74 17
2008-05-30 08:50:58 51°19.317 2°52.485 254 0.2 356 17
2008-05-30 08:51:03 51°19.317 2°52.485 254.1 0.1 17 16.8
2008-05-30 08:51:08 51°19.318 2°52.486 253.6 0.1 19 16.7
2008-05-30 08:51:13 51°19.318 2°52.486 253.3 0.2 23 16.8
2008-05-30 08:51:18 51°19.318 2°52.486 253.3 0.1 58 16.8
2008-05-30 08:51:23 51°19.318 2°52.486 253.4 0.1 33 16.9
2008-05-30 08:51:28 51°19.319 2°52.486 253.6 0.2 15 16.9
2008-05-30 08:51:33 51°19.319 2°52.486 253.8 0.1 34 16.9
2008-05-30 08:51:38 51°19.319 2°52.486 253.8 0.1 25 16.9
2008-05-30 08:51:43 51°19.319 2°52.486 253.8 0.1 349 17
2008-05-30 08:51:48 51°19.319 2°52.486 253.9 0.1 19 16.9
2008-05-30 08:51:53 51°19.319 2°52.486 254.1 0.1 37 17
2008-05-30 08:51:58 51°19.32 2°52.486 254.3 0.1 19 17
2008-05-30 08:52:03 51°19.32 2°52.486 254.7 0.2 355 16.9
2008-05-30 08:52:08 51°19.32 2°52.486 254.7 0.1 335 16.9
2008-05-30 08:52:13 51°19.32 2°52.486 254.8 0.3 329 16.9
2008-05-30 08:52:18 51°19.321 2°52.486 254.9 0.2 326 16.9
2008-05-30 08:52:23 51°19.321 2°52.486 255.2 0.2 344 16.9
2008-05-30 08:52:28 51°19.321 2°52.485 255.5 0.2 327 16.9
2008-05-30 08:52:33 51°19.322 2°52.485 256.3 0.3 345 16.9
2008-05-30 08:52:38 51°19.322 2°52.485 257.2 0.4 348 17
2008-05-30 08:52:43 51°19.322 2°52.485 257.6 0.3 350 16.9
2008-05-30 08:52:48 51°19.323 2°52.485 257.8 0.2 5 16.9
2008-05-30 08:52:53 51°19.323 2°52.485 258.3 0.1 -999 17
2008-05-30 08:52:58 51°19.324 2°52.485 258.6 0.4 344 17
2008-05-30 08:53:03 51°19.324 2°52.485 258.7 0.2 353 17
2008-05-30 08:53:08 51°19.324 2°52.485 258.5 0.3 350 17
2008-05-30 08:53:13 51°19.324 2°52.485 257.9 0.1 348 16.9
2008-05-30 08:53:18 51°19.325 2°52.485 257.2 0.2 356 16.9
2008-05-30 08:53:23 51°19.325 2°52.485 256.5 0.2 356 16.9
2008-05-30 08:53:28 51°19.325 2°52.484 255.8 0.3 351 16.9
2008-05-30 08:53:33 51°19.326 2°52.485 254.8 0.1 6 17
2008-05-30 08:53:38 51°19.326 2°52.484 253.9 0.2 353 17
2008-05-30 08:53:43 51°19.326 2°52.484 253.3 0.1 349 17
2008-05-30 08:53:48 51°19.326 2°52.484 252.2 0.1 343 17
2008-05-30 08:53:53 51°19.326 2°52.485 251.4 0.1 27 16.9
2008-05-30 08:53:58 51°19.326 2°52.484 250.4 0.1 357 17
2008-05-30 08:54:03 51°19.326 2°52.484 249.5 -999 329 16.9
2008-05-30 08:54:08 51°19.326 2°52.484 248.7 0.1 306 16.9
2008-05-30 08:54:13 51°19.326 2°52.485 247.4 -999 238 16.8
2008-05-30 08:54:18 51°19.326 2°52.485 246 0.1 66 16.8
2008-05-30 08:54:23 51°19.326 2°52.485 244.5 -999 146 16.8
2008-05-30 08:54:28 51°19.326 2°52.485 243.4 0.1 126 16.8
2008-05-30 08:54:33 51°19.326 2°52.485 242.5 0.1 154 16.8
2008-05-30 08:54:38 51°19.326 2°52.485 241 0.2 169 16.9
2008-05-30 08:54:43 51°19.326 2°52.485 240.1 0.2 198 16.9
2008-05-30 08:54:48 51°19.325 2°52.485 239.3 0.1 180 16.9
2008-05-30 08:54:53 51°19.325 2°52.486 238.4 0.2 147 16.9
2008-05-30 08:54:58 51°19.325 2°52.486 237.5 0.3 151 17
2008-05-30 08:55:03 51°19.324 2°52.486 236.8 0.4 148 16.9
2008-05-30 08:55:08 51°19.324 2°52.486 236.1 0.3 148 17
2008-05-30 08:55:13 51°19.324 2°52.486 235.9 0.3 159 16.9
2008-05-30 08:55:18 51°19.323 2°52.487 235.7 0.3 154 16.9
2008-05-30 08:55:23 51°19.323 2°52.487 235.2 0.4 147 16.9
2008-05-30 08:55:28 51°19.322 2°52.488 234.9 0.4 150 16.9
2008-05-30 08:55:33 51°19.322 2°52.488 234.6 0.3 152 16.9
2008-05-30 08:55:38 51°19.321 2°52.488 234.6 0.4 154 16.9
2008-05-30 08:55:43 51°19.321 2°52.488 234.2 0.3 160 17
2008-05-30 08:55:48 51°19.32 2°52.488 234.1 0.4 162 16.9
2008-05-30 08:55:53 51°19.32 2°52.489 234.2 0.4 164 16.9
2008-05-30 08:55:58 51°19.32 2°52.489 234.3 0.4 157 16.9
2008-05-30 08:56:03 51°19.319 2°52.489 234.3 0.4 157 16.9
2008-05-30 08:56:08 51°19.319 2°52.49 234.3 0.3 171 17
2008-05-30 08:56:13 51°19.318 2°52.49 234.6 0.4 168 16.9
2008-05-30 08:56:18 51°19.318 2°52.49 235.1 0.3 162 16.8
2008-05-30 08:56:23 51°19.317 2°52.49 235.1 0.3 156 16.9
2008-05-30 08:56:28 51°19.317 2°52.491 235.3 0.3 159 16.8
2008-05-30 08:56:33 51°19.317 2°52.491 235.4 0.2 168 16.9
2008-05-30 08:56:38 51°19.316 2°52.491 235.5 0.2 169 16.8
2008-05-30 08:56:43 51°19.316 2°52.491 235.3 0.3 163 16.8
2008-05-30 08:56:48 51°19.315 2°52.491 235.5 0.3 165 16.8
2008-05-30 08:56:53 51°19.315 2°52.491 235.5 0.3 162 16.8
2008-05-30 08:56:58 51°19.314 2°52.491 235.4 0.4 161 16.9
2008-05-30 08:57:03 51°19.314 2°52.491 235.6 0.2 176 16.9
2008-05-30 08:57:08 51°19.314 2°52.492 235.8 0.4 159 16.8
2008-05-30 08:57:13 51°19.313 2°52.492 235.6 0.3 159 16.7
2008-05-30 08:57:18 51°19.312 2°52.492 235.5 0.4 158 16.7
2008-05-30 08:57:23 51°19.312 2°52.493 235.3 0.4 160 16.7
2008-05-30 08:57:28 51°19.311 2°52.493 235.3 0.4 161 16.8
2008-05-30 08:57:33 51°19.311 2°52.493 235.1 0.4 161 16.7
2008-05-30 08:57:38 51°19.311 2°52.494 234.8 0.4 159 16.8
2008-05-30 08:57:43 51°19.31 2°52.494 234.7 0.3 166 16.8
2008-05-30 08:57:48 51°19.31 2°52.494 234.8 0.4 159 16.9
2008-05-30 08:57:53 51°19.309 2°52.494 235.1 0.3 158 16.9
2008-05-30 08:57:58 51°19.309 2°52.495 235.2 0.4 160 16.9
2008-05-30 08:58:03 51°19.308 2°52.495 235.4 0.3 166 16.8
2008-05-30 08:58:08 51°19.308 2°52.495 235.7 0.4 160 16.8
2008-05-30 08:58:13 51°19.307 2°52.495 236 0.3 169 16.7
2008-05-30 08:58:18 51°19.307 2°52.495 236.4 0.3 173 16.7
2008-05-30 08:58:23 51°19.307 2°52.495 236.5 0.3 170 16.8
2008-05-30 08:58:28 51°19.306 2°52.496 236.6 0.3 169 16.8
2008-05-30 08:58:33 51°19.306 2°52.496 236.5 0.3 165 16.7
2008-05-30 08:58:38 51°19.305 2°52.496 236.5 0.3 167 16.8
2008-05-30 08:58:43 51°19.305 2°52.496 236.7 0.3 185 16.7
2008-05-30 08:58:48 51°19.305 2°52.496 237.1 0.3 175 16.7
2008-05-30 08:58:53 51°19.304 2°52.496 237.3 0.3 181 16.7
2008-05-30 08:58:58 51°19.304 2°52.496 237.5 0.3 184 16.7
2008-05-30 08:59:03 51°19.303 2°52.496 238 0.3 181 16.7
2008-05-30 08:59:08 51°19.303 2°52.496 238.6 0.2 193 16.8
2008-05-30 08:59:13 51°19.303 2°52.496 239 0.2 178 16.8
2008-05-30 08:59:18 51°19.302 2°52.496 239.4 0.2 180 16.8
2008-05-30 08:59:23 51°19.302 2°52.496 240.1 0.3 179 16.8
2008-05-30 08:59:28 51°19.302 2°52.495 240.7 0.2 248 16.7
2008-05-30 08:59:33 51°19.302 2°52.495 241.5 0.2 195 16.7
2008-05-30 08:59:38 51°19.302 2°52.495 242.1 0.2 222 16.7
2008-05-30 08:59:43 51°19.301 2°52.495 243 0.1 190 16.7
2008-05-30 08:59:48 51°19.301 2°52.495 244.1 0.1 252 16.6
2008-05-30 08:59:53 51°19.301 2°52.495 245.2 0.2 212 16.7
2008-05-30 08:59:58 51°19.301 2°52.494 246 0.1 180 16.7
2008-05-30 09:00:03 51°19.301 2°52.494 247.1 0.1 286 16.6
2008-05-30 09:00:08 51°19.301 2°52.494 248 -999 327 16.7
2008-05-30 09:00:13 51°19.301 2°52.494 248.9 0.1 300 16.8
2008-05-30 09:00:18 51°19.301 2°52.493 250.2 0.2 300 16.7
2008-05-30 09:00:23 51°19.301 2°52.493 250.6 0.1 292 16.6
2008-05-30 09:00:28 51°19.302 2°52.493 251.1 0.1 319 16.7
2008-05-30 09:00:33 51°19.302 2°52.493 251.8 0.2 328 16.7
2008-05-30 09:00:38 51°19.302 2°52.493 252.3 0.2 326 16.7
2008-05-30 09:00:43 51°19.302 2°52.492 253 0.3 322 16.8
2008-05-30 09:00:48 51°19.302 2°52.492 253.8 0.1 312 16.8
2008-05-30 09:00:53 51°19.303 2°52.492 254.6 0.2 321 16.9
2008-05-30 09:00:58 51°19.303 2°52.491 254.9 0.4 329 16.8
2008-05-30 09:01:03 51°19.303 2°52.491 254.9 0.2 329 16.7
2008-05-30 09:01:08 51°19.303 2°52.491 255.6 0.4 329 16.7
2008-05-30 09:01:13 51°19.304 2°52.49 256.5 0.2 317 16.6
2008-05-30 09:01:18 51°19.304 2°52.49 257.1 0.3 321 16.5
2008-05-30 09:01:23 51°19.304 2°52.49 257.6 0.4 323 16.5
2008-05-30 09:01:28 51°19.305 2°52.489 257.6 0.3 325 16.5
2008-05-30 09:01:33 51°19.305 2°52.489 257.7 0.3 334 16.6
2008-05-30 09:01:38 51°19.305 2°52.489 257.9 0.3 342 16.8
2008-05-30 09:01:43 51°19.306 2°52.488 257.8 0.3 339 16.9
2008-05-30 09:01:48 51°19.306 2°52.488 258.1 0.2 340 16.9
2008-05-30 09:01:53 51°19.307 2°52.488 258.1 0.4 338 16.9
2008-05-30 09:01:58 51°19.307 2°52.487 258.3 0.3 329 16.8
2008-05-30 09:02:03 51°19.307 2°52.487 258.3 0.3 338 16.8
2008-05-30 09:02:08 51°19.308 2°52.487 258.3 0.4 330 16.8
2008-05-30 09:02:13 51°19.308 2°52.487 258.3 0.3 335 16.7
2008-05-30 09:02:18 51°19.308 2°52.486 258.4 0.3 325 16.8
2008-05-30 09:02:23 51°19.309 2°52.486 258.7 0.3 322 16.8
2008-05-30 09:02:28 51°19.309 2°52.485 258.8 0.3 333 16.8
2008-05-30 09:02:33 51°19.31 2°52.485 258.7 0.3 331 16.8
2008-05-30 09:02:38 51°19.31 2°52.485 258.5 0.4 331 16.8
2008-05-30 09:02:43 51°19.311 2°52.485 258.5 0.4 324 16.8
2008-05-30 09:02:48 51°19.311 2°52.484 258.5 0.4 339 16.9
2008-05-30 09:02:53 51°19.311 2°52.484 258.7 0.3 330 16.9
2008-05-30 09:02:58 51°19.312 2°52.484 258.3 0.3 336 16.7
2008-05-30 09:03:03 51°19.312 2°52.484 257.9 0.3 341 16.8
2008-05-30 09:03:08 51°19.312 2°52.483 257.8 0.3 340 16.8
2008-05-30 09:03:13 51°19.313 2°52.483 257.4 0.2 344 16.8
2008-05-30 09:03:18 51°19.313 2°52.483 257.5 0.3 337 16.9
2008-05-30 09:03:23 51°19.314 2°52.482 257.2 0.3 335 16.8
2008-05-30 09:03:28 51°19.314 2°52.482 257 0.3 325 16.7
2008-05-30 09:03:33 51°19.314 2°52.482 256.6 0.2 328 16.6
2008-05-30 09:03:38 51°19.314 2°52.482 255.9 0.2 332 16.6
2008-05-30 09:03:43 51°19.315 2°52.481 255.3 0.3 333 16.6
2008-05-30 09:03:48 51°19.315 2°52.481 255 0.3 339 16.7
2008-05-30 09:03:53 51°19.315 2°52.481 254.7 0.2 343 16.7
2008-05-30 09:03:58 51°19.316 2°52.481 254.6 0.2 342 16.9
2008-05-30 09:04:03 51°19.316 2°52.481 254.4 0.2 332 16.9
2008-05-30 09:04:08 51°19.316 2°52.48 254.2 0.3 323 16.9
2008-05-30 09:04:13 51°19.316 2°52.48 253.9 0.2 320 16.9
2008-05-30 09:04:18 51°19.317 2°52.48 253.5 0.2 319 16.9
2008-05-30 09:04:23 51°19.317 2°52.479 253.5 0.2 331 16.9
2008-05-30 09:04:28 51°19.317 2°52.479 253.5 0.3 326 16.9
2008-05-30 09:04:33 51°19.318 2°52.479 253.7 0.3 324 16.8
2008-05-30 09:04:38 51°19.318 2°52.479 253.5 0.2 326 16.8
2008-05-30 09:04:43 51°19.318 2°52.478 253.1 0.1 303 16.8
2008-05-30 09:04:48 51°19.318 2°52.478 252.5 0.1 297 16.8
2008-05-30 09:04:53 51°19.318 2°52.478 252.1 0.1 311 16.8
2008-05-30 09:04:58 51°19.318 2°52.478 251.6 0.2 310 16.8
2008-05-30 09:05:03 51°19.318 2°52.478 251 -999 292 16.9
2008-05-30 09:05:08 51°19.319 2°52.477 250.4 0.1 322 16.8
2008-05-30 09:05:13 51°19.319 2°52.477 249.7 0.1 281 16.8
2008-05-30 09:05:18 51°19.319 2°52.477 249.1 0.1 288 16.8
2008-05-30 09:05:23 51°19.319 2°52.477 248.1 0.1 245 16.7
2008-05-30 09:05:28 51°19.319 2°52.477 247.7 0.1 272 16.7
2008-05-30 09:05:33 51°19.318 2°52.476 247.5 0.1 250 16.7
2008-05-30 09:05:38 51°19.318 2°52.476 247.1 0.1 242 16.7
2008-05-30 09:05:43 51°19.318 2°52.476 246.4 0.1 271 16.8
2008-05-30 09:05:48 51°19.318 2°52.476 246 0.1 217 16.8
2008-05-30 09:05:53 51°19.318 2°52.476 245.2 0.1 225 16.8
2008-05-30 09:05:58 51°19.318 2°52.476 244.5 0.1 205 16.7
2008-05-30 09:06:03 51°19.318 2°52.476 243.7 0.2 203 16.8
2008-05-30 09:06:08 51°19.317 2°52.476 243 0.2 202 16.8
2008-05-30 09:06:13 51°19.317 2°52.475 242.5 0.2 199 16.7
2008-05-30 09:06:18 51°19.317 2°52.475 241.8 0.2 198 16.7
2008-05-30 09:06:23 51°19.316 2°52.475 241.3 0.2 197 16.7
2008-05-30 09:06:28 51°19.316 2°52.475 241 0.2 185 16.7
2008-05-30 09:06:33 51°19.316 2°52.475 240.8 0.3 180 16.7
2008-05-30 09:06:38 51°19.315 2°52.475 240.5 0.3 190 16.8
2008-05-30 09:06:43 51°19.315 2°52.475 240.3 0.2 182 16.9
2008-05-30 09:06:48 51°19.315 2°52.475 240.3 0.3 192 16.9
2008-05-30 09:06:53 51°19.314 2°52.475 240 0.3 192 16.8
2008-05-30 09:06:58 51°19.314 2°52.475 239.6 0.3 187 16.8
2008-05-30 09:07:03 51°19.314 2°52.474 239.4 0.2 193 16.7
2008-05-30 09:07:08 51°19.313 2°52.474 239.5 0.3 193 16.8
2008-05-30 09:07:13 51°19.313 2°52.474 239.6 0.2 191 16.9
2008-05-30 09:07:18 51°19.313 2°52.474 239.8 0.3 201 16.9
2008-05-30 09:07:23 51°19.312 2°52.474 240.1 0.2 195 16.9
2008-05-30 09:07:28 51°19.312 2°52.473 240.2 0.3 197 16.8
2008-05-30 09:07:33 51°19.311 2°52.473 240.4 0.3 210 16.7